createdAt,value
2023-04-20T00:00:51.956Z,42.06
2023-04-20T00:01:51.968Z,53.82
2023-04-20T00:02:52.655Z,50.92
2023-04-20T00:03:52.921Z,42.70
2023-04-20T00:04:51.953Z,41.89
2023-04-20T00:05:51.919Z,41.57
2023-04-20T00:06:51.906Z,42.54
2023-04-20T00:07:51.888Z,39.96
2023-04-20T00:08:51.892Z,39.80
2023-04-20T00:09:51.893Z,48.50
2023-04-20T00:10:51.872Z,43.02
2023-04-20T00:11:51.870Z,48.50
2023-04-20T00:12:51.858Z,44.79
2023-04-20T00:13:52.081Z,42.06
2023-04-20T00:14:51.840Z,40.77
2023-04-20T00:15:51.826Z,48.50
2023-04-20T00:16:51.893Z,43.51
2023-04-20T00:17:51.841Z,53.66
2023-04-20T00:18:51.819Z,43.67
2023-04-20T00:19:51.847Z,41.89
2023-04-20T00:20:51.794Z,44.63
2023-04-20T00:23:51.765Z,38.99
2023-04-20T00:24:51.758Z,42.06
2023-04-20T00:25:51.749Z,46.08
2023-04-20T00:26:51.745Z,41.89
2023-04-20T00:27:52.840Z,40.28
2023-04-20T00:28:52.814Z,39.64
2023-04-20T00:29:52.819Z,47.70
2023-04-20T00:30:52.828Z,47.21
2023-04-20T00:31:52.792Z,41.09
2023-04-20T00:32:52.861Z,41.89
2023-04-20T00:33:52.769Z,39.96
2023-04-20T00:34:53.784Z,43.02
2023-04-20T00:35:52.757Z,52.37
2023-04-20T00:36:52.756Z,45.76
2023-04-20T00:37:52.743Z,39.16
2023-04-20T00:38:52.739Z,39.48
2023-04-20T00:39:52.736Z,43.34
2023-04-20T00:40:52.729Z,38.83
2023-04-20T00:41:52.719Z,44.15
2023-04-20T00:42:52.715Z,52.37
2023-04-20T00:43:52.717Z,39.16
2023-04-20T00:44:52.694Z,39.32
2023-04-20T00:45:52.871Z,42.38
2023-04-20T00:46:52.678Z,40.61
2023-04-20T00:47:52.719Z,43.02
2023-04-20T00:48:52.662Z,40.77
2023-04-20T00:49:52.668Z,42.86
2023-04-20T00:50:52.645Z,43.51
2023-04-20T00:51:52.637Z,42.38
2023-04-20T00:52:52.627Z,41.41
2023-04-20T00:53:52.623Z,40.44
2023-04-20T00:54:52.623Z,53.50
2023-04-20T00:55:52.626Z,46.89
2023-04-20T00:56:52.613Z,41.89
2023-04-20T00:57:52.579Z,40.44
2023-04-20T00:58:52.581Z,39.48
2023-04-20T00:59:52.574Z,40.61
2023-04-20T01:00:52.561Z,49.31
2023-04-20T01:01:52.656Z,40.77
2023-04-20T01:02:52.649Z,40.28
2023-04-20T01:03:52.709Z,40.61
2023-04-20T01:04:52.526Z,42.38
2023-04-20T01:05:52.528Z,47.53
2023-04-20T01:06:52.513Z,51.24
2023-04-20T01:07:52.503Z,46.41
2023-04-20T01:08:52.500Z,48.18
2023-04-20T01:09:52.489Z,42.54
2023-04-20T01:10:52.474Z,41.41
2023-04-20T01:11:52.464Z,42.06
2023-04-20T01:12:52.463Z,47.05
2023-04-20T01:13:52.464Z,46.89
2023-04-20T01:14:52.449Z,45.28
2023-04-20T01:15:52.464Z,42.86
2023-04-20T01:16:52.431Z,43.18
2023-04-20T01:17:53.161Z,50.43
2023-04-20T01:18:52.426Z,43.67
2023-04-20T01:19:52.410Z,51.24
2023-04-20T01:20:52.406Z,51.08
2023-04-20T01:21:52.396Z,53.17
2023-04-20T01:22:52.385Z,51.72
2023-04-20T01:23:52.375Z,42.86
2023-04-20T01:24:52.365Z,44.96
2023-04-20T01:25:52.394Z,50.27
2023-04-20T01:26:52.359Z,47.53
2023-04-20T01:27:52.356Z,46.41
2023-04-20T01:28:52.341Z,45.12
2023-04-20T01:29:52.331Z,43.18
2023-04-20T01:30:52.320Z,44.63
2023-04-20T01:31:52.420Z,44.63
2023-04-20T01:32:52.349Z,49.47
2023-04-20T01:33:52.352Z,46.89
2023-04-20T01:34:52.322Z,44.15
2023-04-20T01:35:52.280Z,46.89
2023-04-20T01:36:53.141Z,41.73
2023-04-20T01:37:52.267Z,41.57
2023-04-20T01:38:52.267Z,41.89
2023-04-20T01:39:52.412Z,44.63
2023-04-20T01:40:52.243Z,48.98
2023-04-20T01:41:52.242Z,48.18
2023-04-20T01:42:53.218Z,46.73
2023-04-20T01:43:52.225Z,43.83
2023-04-20T01:44:52.207Z,45.28
2023-04-20T01:45:52.226Z,44.15
2023-04-20T01:46:52.248Z,42.06
2023-04-20T01:47:52.223Z,47.37
2023-04-20T01:48:52.188Z,52.21
2023-04-20T01:49:52.178Z,45.76
2023-04-20T01:50:52.172Z,42.38
2023-04-20T01:51:52.172Z,42.86
2023-04-20T01:52:52.156Z,43.99
2023-04-20T01:53:52.150Z,44.96
2023-04-20T01:54:52.133Z,46.25
2023-04-20T01:55:52.136Z,44.31
2023-04-20T01:56:52.117Z,45.28
2023-04-20T01:57:52.119Z,43.67
2023-04-20T01:58:52.098Z,43.34
2023-04-20T01:59:52.096Z,42.06
2023-04-20T02:00:52.801Z,42.54
2023-04-20T02:01:52.117Z,57.85
2023-04-20T02:02:52.224Z,48.18
2023-04-20T02:03:52.261Z,48.98
2023-04-20T02:04:52.055Z,43.83
2023-04-20T02:05:52.062Z,44.47
2023-04-20T02:06:52.067Z,47.37
2023-04-20T02:07:52.034Z,49.79
2023-04-20T02:08:52.039Z,42.70
2023-04-20T02:09:52.007Z,43.02
2023-04-20T02:10:53.012Z,46.08
2023-04-20T02:11:52.009Z,45.44
2023-04-20T02:12:52.000Z,50.92
2023-04-20T02:13:52.003Z,49.31
2023-04-20T02:14:51.973Z,45.44
2023-04-20T02:15:51.967Z,47.05
2023-04-20T02:16:51.999Z,44.31
2023-04-20T02:17:52.145Z,46.57
2023-04-20T02:18:51.946Z,48.50
2023-04-20T02:19:51.931Z,48.66
2023-04-20T02:20:51.930Z,46.57
2023-04-20T02:21:51.927Z,48.50
2023-04-20T02:22:51.938Z,52.69
2023-04-20T02:23:51.909Z,46.08
2023-04-20T02:24:51.904Z,44.47
2023-04-20T02:25:51.893Z,46.08
2023-04-20T02:26:51.900Z,46.08
2023-04-20T02:27:51.861Z,44.96
2023-04-20T02:28:51.865Z,48.98
2023-04-20T02:29:51.852Z,45.28
2023-04-20T02:30:51.860Z,56.88
2023-04-20T02:31:51.856Z,48.82
2023-04-20T02:32:52.783Z,52.69
2023-04-20T02:33:51.826Z,46.57
2023-04-20T02:34:51.811Z,53.66
2023-04-20T02:35:51.821Z,44.79
2023-04-20T02:36:51.823Z,45.92
2023-04-20T02:37:51.794Z,50.76
2023-04-20T02:38:51.789Z,51.40
2023-04-20T02:39:51.772Z,45.44
2023-04-20T02:40:51.760Z,51.08
2023-04-20T02:41:51.750Z,44.96
2023-04-20T02:42:51.749Z,52.37
2023-04-20T02:43:51.748Z,48.98
2023-04-20T02:44:51.731Z,45.76
2023-04-20T02:45:52.652Z,49.79
2023-04-20T02:46:51.764Z,53.01
2023-04-20T02:47:51.720Z,46.73
2023-04-20T02:48:51.700Z,46.57
2023-04-20T02:49:51.713Z,51.24
2023-04-20T02:50:51.680Z,48.66
2023-04-20T02:51:51.676Z,52.21
2023-04-20T02:52:51.669Z,46.89
2023-04-20T02:53:51.659Z,51.24
2023-04-20T02:54:51.661Z,47.53
2023-04-20T02:55:51.638Z,51.08
2023-04-20T02:56:51.634Z,58.33
2023-04-20T02:57:51.623Z,56.07
2023-04-20T02:58:51.624Z,52.85
2023-04-20T02:59:51.615Z,54.79
2023-04-20T03:00:51.598Z,48.98
2023-04-20T03:01:51.633Z,45.12
2023-04-20T03:02:52.202Z,56.72
2023-04-20T03:03:51.686Z,56.40
2023-04-20T03:04:51.586Z,56.88
2023-04-20T03:05:51.586Z,46.73
2023-04-20T03:06:51.583Z,58.33
2023-04-20T03:07:51.548Z,51.40
2023-04-20T03:08:51.548Z,53.98
2023-04-20T03:09:51.531Z,49.79
2023-04-20T03:10:51.529Z,54.46
2023-04-20T03:11:51.520Z,54.62
2023-04-20T03:12:51.519Z,60.59
2023-04-20T03:13:51.506Z,55.75
2023-04-20T03:14:51.490Z,47.21
2023-04-20T03:15:52.164Z,46.57
2023-04-20T03:16:51.553Z,52.69
2023-04-20T03:17:51.517Z,60.10
2023-04-20T03:18:51.488Z,57.20
2023-04-20T03:19:51.459Z,54.46
2023-04-20T03:20:51.462Z,57.52
2023-04-20T03:21:51.448Z,55.75
2023-04-20T03:22:51.446Z,57.85
2023-04-20T03:23:51.411Z,56.56
2023-04-20T03:24:53.533Z,54.95
2023-04-20T03:25:52.458Z,52.37
2023-04-20T03:26:51.400Z,59.94
2023-04-20T03:27:51.395Z,58.33
2023-04-20T03:28:51.378Z,58.01
2023-04-20T03:29:51.391Z,54.95
2023-04-20T03:30:51.358Z,50.27
2023-04-20T03:31:51.366Z,57.20
2023-04-20T03:32:51.370Z,50.92
2023-04-20T03:33:52.161Z,53.98
2023-04-20T03:34:51.333Z,54.79
2023-04-20T03:35:51.316Z,55.91
2023-04-20T03:36:51.312Z,58.49
2023-04-20T03:37:51.305Z,58.49
2023-04-20T03:38:51.316Z,61.55
2023-04-20T03:39:51.296Z,60.75
2023-04-20T03:40:51.288Z,63.49
2023-04-20T03:41:51.281Z,62.36
2023-04-20T03:42:51.261Z,55.43
2023-04-20T03:43:51.280Z,57.69
2023-04-20T03:44:51.238Z,57.20
2023-04-20T03:45:51.257Z,61.39
2023-04-20T03:46:51.229Z,57.04
2023-04-20T03:47:51.270Z,61.23
2023-04-20T03:48:51.206Z,59.94
2023-04-20T03:49:51.197Z,55.43
2023-04-20T03:50:51.198Z,59.78
2023-04-20T03:51:51.178Z,58.65
2023-04-20T03:52:51.175Z,59.46
2023-04-20T03:53:51.172Z,56.56
2023-04-20T03:54:51.161Z,53.82
2023-04-20T03:55:51.757Z,58.01
2023-04-20T03:56:51.153Z,56.07
2023-04-20T03:57:51.128Z,61.07
2023-04-20T03:58:52.129Z,61.07
2023-04-20T03:59:51.125Z,60.59
2023-04-20T04:00:51.119Z,52.69
2023-04-20T04:01:51.118Z,51.56
2023-04-20T04:02:51.185Z,58.81
2023-04-20T04:03:51.935Z,61.23
2023-04-20T04:04:51.208Z,57.36
2023-04-20T04:05:51.096Z,54.46
2023-04-20T04:06:51.662Z,60.59
2023-04-20T04:07:51.061Z,57.52
2023-04-20T04:08:51.054Z,58.65
2023-04-20T04:09:51.050Z,55.11
2023-04-20T04:10:51.039Z,55.43
2023-04-20T04:11:51.022Z,59.30
2023-04-20T04:12:52.017Z,60.42
2023-04-20T04:13:51.015Z,57.69
2023-04-20T04:14:51.012Z,58.97
2023-04-20T04:15:51.006Z,54.95
2023-04-20T04:16:51.010Z,55.27
2023-04-20T04:17:51.045Z,61.55
2023-04-20T04:18:50.974Z,58.01
2023-04-20T04:19:50.988Z,59.94
2023-04-20T04:20:50.966Z,57.04
2023-04-20T04:21:50.946Z,62.04
2023-04-20T04:22:50.993Z,64.61
2023-04-20T04:23:50.937Z,59.30
2023-04-20T04:24:51.764Z,59.94
2023-04-20T04:25:50.922Z,60.59
2023-04-20T04:26:50.958Z,61.39
2023-04-20T04:27:50.906Z,59.46
2023-04-20T04:28:50.891Z,59.62
2023-04-20T04:29:50.901Z,60.75
2023-04-20T04:30:50.893Z,65.26
2023-04-20T04:31:50.909Z,64.61
2023-04-20T04:32:50.931Z,61.39
2023-04-20T04:33:50.877Z,61.87
2023-04-20T04:34:50.849Z,60.42
2023-04-20T04:35:50.918Z,62.84
2023-04-20T04:36:50.831Z,59.62
2023-04-20T04:37:50.833Z,63.16
2023-04-20T04:38:50.835Z,59.14
2023-04-20T04:39:50.815Z,56.40
2023-04-20T04:40:50.806Z,55.59
2023-04-20T04:41:50.793Z,60.59
2023-04-20T04:42:50.786Z,63.97
2023-04-20T04:43:50.783Z,60.75
2023-04-20T04:44:50.769Z,57.36
2023-04-20T04:45:50.841Z,65.42
2023-04-20T04:46:50.827Z,63.49
2023-04-20T04:47:50.772Z,60.26
2023-04-20T04:48:50.735Z,62.52
2023-04-20T04:49:50.726Z,64.45
2023-04-20T04:50:50.719Z,63.49
2023-04-20T04:51:50.730Z,60.91
2023-04-20T04:52:50.701Z,61.39
2023-04-20T04:53:50.697Z,58.01
2023-04-20T04:54:50.687Z,61.07
2023-04-20T04:55:50.680Z,59.78
2023-04-20T04:56:50.686Z,64.61
2023-04-20T04:57:50.686Z,65.58
2023-04-20T04:58:50.655Z,62.20
2023-04-20T04:59:50.647Z,62.52
2023-04-20T05:00:50.671Z,63.81
2023-04-20T05:01:50.690Z,62.36
2023-04-20T05:02:50.776Z,64.29
2023-04-20T05:03:50.755Z,63.00
2023-04-20T05:04:50.677Z,62.68
2023-04-20T05:05:50.602Z,62.20
2023-04-20T05:06:50.589Z,61.71
2023-04-20T05:07:50.594Z,59.46
2023-04-20T05:08:50.578Z,60.75
2023-04-20T05:09:50.564Z,63.16
2023-04-20T05:10:50.573Z,63.81
2023-04-20T05:11:50.552Z,60.10
2023-04-20T05:12:50.527Z,63.16
2023-04-20T05:13:51.575Z,60.59
2023-04-20T05:14:50.523Z,59.78
2023-04-20T05:15:51.189Z,60.75
2023-04-20T05:16:50.510Z,60.10
2023-04-20T05:17:50.526Z,60.91
2023-04-20T05:18:50.551Z,59.62
2023-04-20T05:19:50.480Z,64.94
2023-04-20T05:20:50.493Z,66.55
2023-04-20T05:21:51.256Z,64.94
2023-04-20T05:22:50.461Z,63.33
2023-04-20T05:23:50.459Z,62.04
2023-04-20T05:24:50.441Z,66.23
2023-04-20T05:25:50.519Z,63.97
2023-04-20T05:26:50.420Z,62.84
2023-04-20T05:27:50.418Z,62.84
2023-04-20T05:28:50.431Z,64.61
2023-04-20T05:29:50.401Z,63.16
2023-04-20T05:30:50.405Z,60.59
2023-04-20T05:31:50.414Z,62.84
2023-04-20T05:32:51.858Z,63.65
2023-04-20T05:33:51.440Z,63.00
2023-04-20T05:34:50.373Z,60.59
2023-04-20T05:35:50.355Z,61.07
2023-04-20T05:36:50.359Z,62.68
2023-04-20T05:37:50.418Z,65.74
2023-04-20T05:38:50.365Z,63.97
2023-04-20T05:39:50.385Z,63.00
2023-04-20T05:40:52.095Z,61.23
2023-04-20T05:41:50.430Z,59.30
2023-04-20T05:42:50.397Z,62.20
2023-04-20T05:43:50.293Z,63.81
2023-04-20T05:44:52.274Z,65.26
2023-04-20T05:45:50.319Z,65.74
2023-04-20T05:46:50.278Z,61.87
2023-04-20T05:47:50.288Z,60.59
2023-04-20T05:48:50.253Z,62.20
2023-04-20T05:49:50.241Z,61.07
2023-04-20T05:50:50.329Z,60.91
2023-04-20T05:51:50.241Z,65.10
2023-04-20T05:52:50.216Z,61.23
2023-04-20T05:53:50.218Z,62.84
2023-04-20T05:54:51.202Z,64.61
2023-04-20T05:55:50.277Z,62.04
2023-04-20T05:56:51.191Z,63.33
2023-04-20T05:57:50.174Z,63.81
2023-04-20T05:58:50.164Z,64.29
2023-04-20T05:59:50.185Z,62.52
2023-04-20T06:00:50.178Z,64.61
2023-04-20T06:01:50.170Z,63.16
2023-04-20T06:02:50.368Z,64.13
2023-04-20T06:03:50.294Z,61.07
2023-04-20T06:04:50.348Z,62.36
2023-04-20T06:05:50.124Z,61.39
2023-04-20T06:06:50.114Z,63.16
2023-04-20T06:07:50.110Z,62.04
2023-04-20T06:08:50.088Z,69.29
2023-04-20T06:09:50.084Z,63.49
2023-04-20T06:10:50.079Z,60.10
2023-04-20T06:11:50.061Z,62.20
2023-04-20T06:12:50.072Z,65.42
2023-04-20T06:13:50.054Z,65.58
2023-04-20T06:14:50.050Z,64.94
2023-04-20T06:15:50.061Z,60.59
2023-04-20T06:16:50.032Z,60.26
2023-04-20T06:17:50.049Z,61.07
2023-04-20T06:18:50.020Z,62.52
2023-04-20T06:19:50.014Z,64.13
2023-04-20T06:20:50.078Z,61.55
2023-04-20T06:21:50.026Z,64.29
2023-04-20T06:22:50.051Z,65.74
2023-04-20T06:23:49.998Z,65.26
2023-04-20T06:24:49.986Z,63.65
2023-04-20T06:25:49.968Z,64.13
2023-04-20T06:26:49.954Z,61.87
2023-04-20T06:27:51.977Z,62.36
2023-04-20T06:28:49.938Z,62.68
2023-04-20T06:29:49.935Z,63.49
2023-04-20T06:30:49.944Z,68.32
2023-04-20T06:31:50.106Z,58.81
2023-04-20T06:32:49.940Z,62.68
2023-04-20T06:33:49.902Z,61.39
2023-04-20T06:34:49.900Z,63.81
2023-04-20T06:35:49.881Z,63.49
2023-04-20T06:36:49.870Z,64.13
2023-04-20T06:37:49.878Z,63.49
2023-04-20T06:38:49.924Z,60.75
2023-04-20T06:39:49.865Z,65.10
2023-04-20T06:40:50.794Z,62.84
2023-04-20T06:41:49.842Z,59.78
2023-04-20T06:42:49.821Z,60.91
2023-04-20T06:43:49.828Z,61.55
2023-04-20T06:44:49.809Z,60.59
2023-04-20T06:45:49.834Z,62.20
2023-04-20T06:46:49.829Z,61.23
2023-04-20T06:47:49.794Z,60.75
2023-04-20T06:48:49.782Z,62.04
2023-04-20T06:49:49.770Z,62.36
2023-04-20T06:50:49.753Z,63.81
2023-04-20T06:51:49.754Z,63.65
2023-04-20T06:52:49.743Z,64.61
2023-04-20T06:53:49.792Z,61.07
2023-04-20T06:54:49.731Z,61.87
2023-04-20T06:55:49.722Z,61.71
2023-04-20T06:56:49.713Z,60.26
2023-04-20T06:57:49.714Z,61.39
2023-04-20T06:58:49.713Z,62.04
2023-04-20T06:59:49.684Z,65.90
2023-04-20T07:00:49.680Z,63.97
2023-04-20T07:01:49.733Z,62.36
2023-04-20T07:02:49.761Z,61.87
2023-04-20T07:03:49.794Z,59.94
2023-04-20T07:04:49.672Z,60.10
2023-04-20T07:05:49.655Z,58.49
2023-04-20T07:06:51.706Z,62.68
2023-04-20T07:07:49.628Z,65.10
2023-04-20T07:08:49.617Z,57.04
2023-04-20T07:09:49.617Z,60.26
2023-04-20T07:10:49.635Z,57.36
2023-04-20T07:11:49.601Z,60.42
2023-04-20T07:12:49.577Z,60.75
2023-04-20T07:13:49.597Z,60.42
2023-04-20T07:14:49.583Z,60.59
2023-04-20T07:15:49.592Z,60.91
2023-04-20T07:16:49.634Z,59.62
2023-04-20T07:19:59.184Z,60.26
2023-04-20T07:20:59.171Z,62.20
2023-04-20T07:22:00.268Z,63.00
2023-04-20T07:23:00.275Z,60.59
2023-04-20T07:24:01.047Z,60.26
2023-04-20T07:25:00.285Z,64.78
2023-04-20T07:26:00.252Z,61.23
2023-04-20T07:27:00.225Z,61.23
2023-04-20T07:28:00.217Z,62.52
2023-04-20T07:29:00.215Z,59.62
2023-04-20T07:30:00.210Z,63.65
2023-04-20T07:31:00.252Z,59.30
2023-04-20T07:32:00.250Z,60.75
2023-04-20T07:33:00.191Z,63.97
2023-04-20T07:34:00.155Z,61.07
2023-04-20T07:35:00.150Z,59.62
2023-04-20T07:36:00.184Z,63.16
2023-04-20T07:37:00.148Z,65.58
2023-04-20T07:38:00.128Z,62.52
2023-04-20T07:39:00.153Z,61.23
2023-04-20T07:40:00.176Z,63.81
2023-04-20T07:41:00.123Z,60.91
2023-04-20T07:42:00.314Z,61.55
2023-04-20T07:43:00.104Z,62.84
2023-04-20T07:44:00.109Z,61.39
2023-04-20T07:45:00.076Z,60.26
2023-04-20T07:46:00.099Z,61.55
2023-04-20T07:47:00.909Z,62.36
2023-04-20T07:48:00.126Z,61.87
2023-04-20T07:49:00.059Z,63.97
2023-04-20T07:50:00.060Z,61.71
2023-04-20T07:51:00.025Z,62.20
2023-04-20T07:52:09.294Z,63.00
2023-04-20T07:53:02.008Z,63.49
2023-04-20T07:53:59.997Z,61.55
2023-04-20T07:54:59.996Z,62.68
2023-04-20T07:56:00.003Z,63.97
2023-04-20T07:56:59.991Z,60.91
2023-04-20T07:58:00.016Z,64.13
2023-04-20T07:58:59.984Z,62.84
2023-04-20T08:00:00.025Z,60.42
2023-04-20T08:00:59.956Z,65.42
2023-04-20T08:01:59.995Z,63.33
2023-04-20T08:03:00.071Z,62.68
2023-04-20T08:04:00.184Z,59.94
2023-04-20T08:04:59.990Z,63.65
2023-04-20T08:05:59.942Z,63.65
2023-04-20T08:06:59.889Z,61.87
2023-04-20T08:07:59.897Z,63.97
2023-04-20T08:08:59.874Z,62.04
2023-04-20T08:09:59.867Z,59.30
2023-04-20T08:10:59.863Z,62.36
2023-04-20T08:11:59.885Z,61.55
2023-04-20T08:12:59.843Z,61.07
2023-04-20T08:14:00.347Z,62.04
2023-04-20T08:14:59.843Z,61.55
2023-04-20T08:15:59.855Z,60.91
2023-04-20T08:16:59.814Z,62.04
2023-04-20T08:17:59.878Z,57.20
2023-04-20T08:18:59.788Z,60.75
2023-04-20T08:19:59.788Z,63.00
2023-04-20T08:20:59.783Z,62.68
2023-04-20T08:22:01.328Z,64.94
2023-04-20T08:22:59.760Z,64.29
2023-04-20T08:23:59.801Z,60.10
2023-04-20T08:24:59.762Z,66.06
2023-04-20T08:25:59.732Z,63.65
2023-04-20T08:26:59.744Z,64.94
2023-04-20T08:27:59.729Z,64.29
2023-04-20T08:29:00.583Z,64.61
2023-04-20T08:29:59.893Z,64.61
2023-04-20T08:30:59.771Z,63.97
2023-04-20T08:32:00.702Z,62.04
2023-04-20T08:32:59.704Z,60.75
2023-04-20T08:33:59.681Z,63.00
2023-04-20T08:34:59.667Z,63.33
2023-04-20T08:35:59.663Z,60.26
2023-04-20T08:36:59.656Z,63.33
2023-04-20T08:37:59.661Z,65.74
2023-04-20T08:38:59.630Z,61.39
2023-04-20T08:39:59.661Z,63.97
2023-04-20T08:40:59.703Z,63.16
2023-04-20T08:41:59.613Z,62.68
2023-04-20T08:42:59.611Z,61.39
2023-04-20T08:43:59.609Z,63.81
2023-04-20T08:44:59.592Z,59.30
2023-04-20T08:45:59.963Z,61.23
2023-04-20T08:46:59.977Z,62.52
2023-04-20T08:47:59.575Z,63.16
2023-04-20T08:48:59.578Z,59.62
2023-04-20T08:49:59.538Z,60.91
2023-04-20T08:50:59.541Z,61.55
2023-04-20T08:51:59.582Z,63.00
2023-04-20T08:52:59.520Z,63.16
2023-04-20T08:53:59.550Z,63.49
2023-04-20T08:54:59.499Z,61.23
2023-04-20T08:55:59.501Z,60.26
2023-04-20T08:56:59.499Z,62.04
2023-04-20T08:57:59.494Z,63.49
2023-04-20T08:59:00.465Z,66.06
2023-04-20T08:59:59.477Z,63.33
2023-04-20T09:00:59.467Z,64.29
2023-04-20T09:01:59.653Z,63.33
2023-04-20T09:02:59.562Z,61.39
2023-04-20T09:03:59.553Z,62.20
2023-04-20T09:04:59.569Z,62.36
2023-04-20T09:06:00.060Z,65.10
2023-04-20T09:06:59.406Z,64.45
2023-04-20T09:07:59.411Z,61.23
2023-04-20T09:08:59.397Z,63.33
2023-04-20T09:09:59.384Z,63.33
2023-04-20T09:10:59.366Z,63.49
2023-04-20T09:11:59.413Z,61.07
2023-04-20T09:12:59.351Z,61.23
2023-04-20T09:13:59.347Z,63.33
2023-04-20T09:14:59.341Z,62.52
2023-04-20T09:15:59.386Z,62.04
2023-04-20T09:16:59.354Z,63.33
2023-04-20T09:17:59.391Z,61.07
2023-04-20T09:18:59.312Z,62.68
2023-04-20T09:19:59.298Z,63.33
2023-04-20T09:20:59.298Z,64.94
2023-04-20T09:21:59.296Z,63.81
2023-04-20T09:22:59.283Z,61.87
2023-04-20T09:23:59.285Z,61.07
2023-04-20T09:24:59.265Z,64.61
2023-04-20T09:25:59.248Z,65.10
2023-04-20T09:26:59.240Z,62.36
2023-04-20T09:27:59.274Z,63.81
2023-04-20T09:28:59.223Z,63.16
2023-04-20T09:29:59.216Z,63.81
2023-04-20T09:30:59.206Z,62.84
2023-04-20T09:31:59.218Z,61.07
2023-04-20T09:32:59.240Z,61.07
2023-04-20T09:33:59.203Z,64.61
2023-04-20T09:34:59.191Z,64.45
2023-04-20T09:35:59.197Z,62.52
2023-04-20T09:36:59.154Z,63.97
2023-04-20T09:37:59.165Z,65.42
2023-04-20T09:38:59.155Z,62.68
2023-04-20T09:39:59.125Z,61.87
2023-04-20T09:41:00.140Z,60.59
2023-04-20T09:41:59.146Z,62.52
2023-04-20T09:42:59.117Z,62.20
2023-04-20T09:43:59.127Z,63.16
2023-04-20T09:44:59.151Z,60.10
2023-04-20T09:45:59.106Z,61.87
2023-04-20T09:46:59.095Z,61.87
2023-04-20T09:47:59.138Z,63.00
2023-04-20T09:48:59.067Z,63.16
2023-04-20T09:50:04.480Z,62.52
2023-04-20T09:51:00.053Z,62.52
2023-04-20T09:51:59.051Z,65.26
2023-04-20T09:52:59.044Z,62.84
2023-04-20T09:53:59.035Z,63.00
2023-04-20T09:54:59.021Z,61.87
2023-04-20T09:55:59.012Z,62.84
2023-04-20T09:56:59.016Z,62.04
2023-04-20T09:57:59.049Z,64.61
2023-04-20T09:58:58.992Z,61.87
2023-04-20T09:59:58.998Z,63.00
2023-04-20T10:00:59.010Z,62.36
2023-04-20T10:01:59.021Z,63.00
2023-04-20T10:02:59.193Z,63.97
2023-04-20T10:03:59.282Z,60.59
2023-04-20T10:04:58.959Z,61.55
2023-04-20T10:05:59.058Z,61.87
2023-04-20T10:06:58.950Z,65.10
2023-04-20T10:07:58.915Z,63.49
2023-04-20T10:08:59.666Z,60.26
2023-04-20T10:09:58.904Z,60.42
2023-04-20T10:10:58.890Z,61.23
2023-04-20T10:11:59.654Z,61.71
2023-04-20T10:13:00.676Z,61.87
2023-04-20T10:13:58.891Z,59.78
2023-04-20T10:14:58.856Z,61.23
2023-04-20T10:15:58.848Z,63.16
2023-04-20T10:16:58.896Z,60.26
2023-04-20T10:17:58.958Z,61.39
2023-04-20T10:18:59.663Z,62.04
2023-04-20T10:19:58.825Z,60.10
2023-04-20T10:20:58.815Z,61.07
2023-04-20T10:21:58.863Z,64.61
2023-04-20T10:22:58.798Z,65.10
2023-04-20T10:23:58.800Z,66.87
2023-04-20T10:24:58.792Z,63.00
2023-04-20T10:25:58.775Z,63.97
2023-04-20T10:26:58.796Z,62.52
2023-04-20T10:27:58.762Z,60.75
2023-04-20T10:28:58.752Z,63.16
2023-04-20T10:29:58.749Z,62.84
2023-04-20T10:30:58.763Z,61.71
2023-04-20T10:31:58.748Z,63.97
2023-04-20T10:32:58.824Z,62.52
2023-04-20T10:33:58.717Z,65.58
2023-04-20T10:34:58.711Z,64.13
2023-04-20T10:35:58.720Z,63.00
2023-04-20T10:36:58.692Z,63.65
2023-04-20T10:37:58.722Z,62.84
2023-04-20T10:38:58.694Z,61.55
2023-04-20T10:39:58.717Z,62.84
2023-04-20T10:40:58.682Z,63.49
2023-04-20T10:41:59.670Z,60.91
2023-04-20T10:42:58.810Z,61.71
2023-04-20T10:43:58.639Z,60.75
2023-04-20T10:44:58.638Z,61.39
2023-04-20T10:45:58.636Z,63.65
2023-04-20T10:46:58.612Z,60.91
2023-04-20T10:47:58.686Z,61.55
2023-04-20T10:48:58.604Z,62.20
2023-04-20T10:49:58.584Z,62.52
2023-04-20T10:50:58.584Z,61.55
2023-04-20T10:51:58.571Z,58.01
2023-04-20T10:52:58.606Z,59.30
2023-04-20T10:53:58.681Z,60.91
2023-04-20T10:54:58.556Z,60.10
2023-04-20T10:55:58.534Z,60.42
2023-04-20T10:56:58.562Z,61.55
2023-04-20T10:57:58.520Z,59.14
2023-04-20T10:58:59.921Z,61.23
2023-04-20T10:59:58.518Z,60.10
2023-04-20T11:00:58.523Z,62.36
2023-04-20T11:01:58.590Z,61.23
2023-04-20T11:02:58.600Z,63.00
2023-04-20T11:03:58.548Z,60.42
2023-04-20T11:04:58.548Z,62.20
2023-04-20T11:05:58.498Z,63.00
2023-04-20T11:06:58.465Z,62.36
2023-04-20T11:07:58.468Z,61.55
2023-04-20T11:08:58.449Z,61.23
2023-04-20T11:09:58.479Z,61.55
2023-04-20T11:10:58.429Z,60.91
2023-04-20T11:11:58.416Z,61.23
2023-04-20T11:12:58.431Z,59.62
2023-04-20T11:13:58.406Z,59.46
2023-04-20T11:14:58.402Z,57.04
2023-04-20T11:15:58.405Z,59.14
2023-04-20T11:16:58.482Z,59.94
2023-04-20T11:17:58.411Z,60.75
2023-04-20T11:18:58.383Z,60.75
2023-04-20T11:19:58.376Z,62.84
2023-04-20T11:20:58.380Z,63.65
2023-04-20T11:21:58.343Z,63.33
2023-04-20T11:22:58.338Z,63.00
2023-04-20T11:23:58.327Z,61.55
2023-04-20T11:24:58.328Z,61.71
2023-04-20T11:25:58.315Z,60.75
2023-04-20T11:26:58.305Z,61.39
2023-04-20T11:27:58.293Z,63.16
2023-04-20T11:28:58.291Z,61.39
2023-04-20T11:29:58.315Z,62.04
2023-04-20T11:30:58.332Z,59.78
2023-04-20T11:31:58.390Z,61.07
2023-04-20T11:32:58.345Z,62.04
2023-04-20T11:33:59.178Z,61.87
2023-04-20T11:35:06.099Z,61.87
2023-04-20T11:36:00.695Z,62.36
2023-04-20T11:36:58.219Z,64.29
2023-04-20T11:37:58.208Z,63.97
2023-04-20T11:38:59.185Z,63.33
2023-04-20T11:39:58.212Z,62.04
2023-04-20T11:40:58.202Z,61.55
2023-04-20T11:41:58.199Z,61.55
2023-04-20T11:42:58.180Z,59.30
2023-04-20T11:43:58.175Z,60.26
2023-04-20T11:44:58.160Z,60.26
2023-04-20T11:45:58.190Z,62.36
2023-04-20T11:46:58.232Z,62.04
2023-04-20T11:47:58.233Z,63.16
2023-04-20T11:48:58.131Z,58.81
2023-04-20T11:49:58.141Z,60.26
2023-04-20T11:50:58.108Z,61.55
2023-04-20T11:51:58.141Z,60.26
2023-04-20T11:52:58.725Z,61.07
2023-04-20T11:53:58.091Z,60.42
2023-04-20T11:54:58.083Z,60.75
2023-04-20T11:55:59.687Z,59.78
2023-04-20T11:56:58.147Z,61.71
2023-04-20T11:57:58.081Z,62.68
2023-04-20T11:58:58.052Z,61.71
2023-04-20T11:59:58.033Z,60.59
2023-04-20T12:00:58.047Z,60.91
2023-04-20T12:01:58.174Z,60.42
2023-04-20T12:02:58.213Z,62.68
2023-04-20T12:03:58.190Z,62.20
2023-04-20T12:04:58.033Z,62.36
2023-04-20T12:05:58.058Z,66.23
2023-04-20T12:06:58.005Z,64.45
2023-04-20T12:07:58.020Z,60.75
2023-04-20T12:08:57.976Z,61.55
2023-04-20T12:09:57.953Z,61.23
2023-04-20T12:10:58.699Z,61.23
2023-04-20T12:11:58.955Z,60.75
2023-04-20T12:12:57.936Z,61.23
2023-04-20T12:13:57.995Z,60.75
2023-04-20T12:14:57.925Z,60.59
2023-04-20T12:15:57.960Z,63.00
2023-04-20T12:16:58.646Z,62.04
2023-04-20T12:17:59.026Z,62.04
2023-04-20T12:18:57.950Z,62.68
2023-04-20T12:19:57.919Z,63.00
2023-04-20T12:20:57.883Z,61.07
2023-04-20T12:21:57.885Z,64.61
2023-04-20T12:22:59.059Z,63.65
2023-04-20T12:23:58.889Z,60.42
2023-04-20T12:24:57.842Z,62.84
2023-04-20T12:25:57.851Z,61.39
2023-04-20T12:26:57.831Z,61.39
2023-04-20T12:27:57.821Z,64.13
2023-04-20T12:28:57.803Z,63.00
2023-04-20T12:29:57.800Z,64.61
2023-04-20T12:30:57.812Z,63.65
2023-04-20T12:31:57.845Z,64.29
2023-04-20T12:32:57.807Z,63.81
2023-04-20T12:33:57.763Z,64.94
2023-04-20T12:34:57.775Z,64.94
2023-04-20T12:35:57.765Z,60.10
2023-04-20T12:36:57.750Z,62.20
2023-04-20T12:37:57.781Z,63.16
2023-04-20T12:38:57.742Z,64.29
2023-04-20T12:39:57.715Z,65.90
2023-04-20T12:40:57.705Z,63.49
2023-04-20T12:41:57.754Z,62.68
2023-04-20T12:42:57.695Z,64.13
2023-04-20T12:43:57.686Z,61.87
2023-04-20T12:44:57.688Z,61.71
2023-04-20T12:45:57.719Z,61.71
2023-04-20T12:46:57.711Z,61.39
2023-04-20T12:47:59.774Z,63.97
2023-04-20T12:48:57.655Z,61.87
2023-04-20T12:49:57.634Z,61.55
2023-04-20T12:50:57.658Z,63.16
2023-04-20T12:51:57.642Z,63.00
2023-04-20T12:52:57.630Z,60.75
2023-04-20T12:53:57.611Z,63.16
2023-04-20T12:54:57.620Z,63.16
2023-04-20T12:56:01.303Z,63.81
2023-04-20T12:56:58.618Z,63.33